Time;durP1;ratioP1;P1;durP2;ratioP2;P2;SDS_P1;SDS_P2;PMS_P1;PMS_P2;Temp;Humidity;BMP_temperature;BMP_pressure;BME280_temperature;BME280_humidity;BME280_pressure;Samples;Min_cycle;Max_cycle;Signal;HPM_P1;HPM_P2
2022/03/07 00:00:48;;;;;;;13.93;8.10;;;;;;;-144.19;100.00;79513.22;6181892;23;20323;-88
2022/03/07 00:03:14;;;;;;;13.13;8.80;;;;;;;-144.19;100.00;79499.44;6156593;23;20279;-88
2022/03/07 00:05:41;;;;;;;11.35;8.65;;;;;;;-144.19;100.00;79501.41;6181483;23;20016;-88
2022/03/07 00:08:08;;;;;;;11.73;8.20;;;;;;;-144.19;100.00;79503.38;6182140;23;20024;-87
2022/03/07 00:10:54;;;;;;;14.10;8.35;;;;;;;-144.19;100.00;79481.72;6182989;23;20044;-89
2022/03/07 00:13:21;;;;;;;18.67;9.63;;;;;;;-144.19;100.00;79507.31;6182863;23;20024;-88
2022/03/07 00:15:47;;;;;;;12.67;8.23;;;;;;;-144.19;100.00;79487.63;6182291;23;20661;-88
2022/03/07 00:18:13;;;;;;;12.45;8.30;;;;;;;-144.19;100.00;79473.84;6181981;23;20787;-88
2022/03/07 00:20:40;;;;;;;13.97;9.73;;;;;;;-144.19;100.00;79481.72;6181763;23;20039;-89
2022/03/07 00:23:07;;;;;;;14.10;9.57;;;;;;;-144.19;100.00;79485.66;6156392;23;20241;-88
2022/03/07 00:25:33;;;;;;;10.20;8.23;;;;;;;-144.19;100.00;79499.44;6181482;23;20266;-89
2022/03/07 00:28:02;;;;;;;12.85;8.27;;;;;;;-144.19;100.00;79513.22;6181275;23;20101;-89
2022/03/07 00:30:28;;;;;;;13.30;9.25;;;;;;;-144.19;100.00;79509.28;6181795;23;20028;-89
2022/03/07 00:32:55;;;;;;;12.43;8.77;;;;;;;-144.19;100.00;79509.28;6182766;23;20025;-89
2022/03/07 00:35:21;;;;;;;12.20;8.03;;;;;;;-144.19;100.00;79509.28;6181956;23;20017;-90
2022/03/07 00:37:47;;;;;;;14.97;10.50;;;;;;;-144.19;100.00;79487.63;6183517;23;20244;-90
2022/03/07 00:40:14;;;;;;;14.75;9.77;;;;;;;-144.19;100.00;79483.69;6182880;23;20096;-88
2022/03/07 00:42:40;;;;;;;14.70;10.13;;;;;;;-144.19;100.00;79469.91;6180596;23;20021;-89
2022/03/07 00:45:08;;;;;;;17.58;10.82;;;;;;;-144.19;100.00;79477.78;6182261;23;20271;-89
2022/03/07 00:47:35;;;;;;;13.40;10.10;;;;;;;-144.19;100.00;79458.06;6182952;23;20100;-89
2022/03/07 00:50:04;;;;;;;16.05;10.25;;;;;;;-144.19;100.00;79450.19;6182435;23;20036;-90
2022/03/07 00:52:31;;;;;;;15.32;9.40;;;;;;;-144.19;100.00;79458.06;6156293;23;20017;-89
2022/03/07 00:54:57;;;;;;;16.83;11.73;;;;;;;-144.19;100.00;79454.13;6182077;23;20017;-89
2022/03/07 00:57:24;;;;;;;15.70;10.73;;;;;;;-144.19;100.00;79428.53;6182869;23;20021;-89
2022/03/07 00:59:50;;;;;;;16.85;10.15;;;;;;;-144.19;100.00;79438.38;6180846;23;20021;-91
2022/03/07 01:02:17;;;;;;;12.85;9.45;;;;;;;-144.19;100.00;79442.31;6179834;23;20499;-88
2022/03/07 01:04:43;;;;;;;13.60;10.38;;;;;;;-144.19;100.00;79440.34;6181156;23;20536;-88
2022/03/07 01:07:10;;;;;;;17.20;11.30;;;;;;;-144.19;100.00;79418.69;6181251;23;20021;-89
2022/03/07 01:09:36;;;;;;;15.07;10.55;;;;;;;-144.19;100.00;79426.56;6181827;23;20241;-91
2022/03/07 01:12:03;;;;;;;14.55;9.90;;;;;;;-144.19;100.00;79397.00;6181782;23;20457;-90
2022/03/07 01:14:30;;;;;;;16.15;10.75;;;;;;;-144.19;100.00;79414.75;6156862;23;20021;-88
2022/03/07 01:16:56;;;;;;;19.00;12.30;;;;;;;-144.19;100.00;79414.75;6156634;23;20032;-88
2022/03/07 01:19:23;;;;;;;18.45;11.40;;;;;;;-144.19;100.00;79414.75;6181267;23;20272;-91
2022/03/07 01:21:51;;;;;;;15.27;11.32;;;;;;;-144.19;100.00;79410.81;6181490;23;20029;-90
2022/03/07 01:24:19;;;;;;;17.98;11.10;;;;;;;-144.19;100.00;79406.88;6155506;23;20021;-89
2022/03/07 01:26:46;;;;;;;;;;;;;;;-144.19;100.00;79414.75;6181360;23;20119;-88
2022/03/07 01:29:12;;;;;;;16.63;10.80;;;;;;;-144.19;100.00;79389.13;6155396;23;19920;-89
2022/03/07 01:31:39;;;;;;;16.67;11.35;;;;;;;-144.19;100.00;79406.88;6180657;23;20017;-90
2022/03/07 01:34:06;;;;;;;18.15;11.02;;;;;;;-144.19;100.00;79395.03;6183312;23;20021;-90
2022/03/07 01:36:32;;;;;;;20.67;12.48;;;;;;;-144.19;100.00;79375.34;6156808;23;20088;-90
2022/03/07 01:38:58;;;;;;;14.82;11.13;;;;;;;-144.19;100.00;79373.38;6183489;23;20021;-90
2022/03/07 01:41:25;;;;;;;16.60;11.43;;;;;;;-144.19;100.00;79363.53;6180432;23;20017;-90
2022/03/07 01:43:51;;;;;;;17.38;11.60;;;;;;;-144.19;100.00;79355.66;6180154;23;20020;-92
2022/03/07 01:46:18;;;;;;;18.65;11.82;;;;;;;-144.19;100.00;79359.59;6182981;23;20079;-88
2022/03/07 01:48:44;;;;;;;18.33;12.63;;;;;;;-144.19;100.00;79359.59;6181653;23;20025;-88
2022/03/07 01:51:13;;;;;;;19.27;12.80;;;;;;;-144.19;100.00;79347.78;6180672;23;20024;-90
2022/03/07 01:53:39;;;;;;;15.57;12.43;;;;;;;-144.19;100.00;79353.69;6182340;23;20363;-89
2022/03/07 01:56:07;;;;;;;20.90;12.83;;;;;;;-144.19;100.00;79351.72;6181207;23;20370;-90
2022/03/07 01:58:34;;;;;;;19.73;12.38;;;;;;;-144.19;100.00;79339.88;6156499;23;20244;-91
2022/03/07 02:01:02;;;;;;;20.73;12.30;;;;;;;-144.19;100.00;79332.00;6180509;23;20020;-89
2022/03/07 02:03:30;;;;;;;21.58;12.23;;;;;;;-144.19;100.00;79328.06;6179788;23;20060;-90
2022/03/07 02:05:57;;;;;;;19.35;12.48;;;;;;;-144.19;100.00;79318.22;6181538;23;20350;-88
2022/03/07 02:08:24;;;;;;;18.27;12.45;;;;;;;-144.19;100.00;79332.00;6156093;23;20537;-88
2022/03/07 02:10:50;;;;;;;16.30;11.23;;;;;;;-144.19;100.00;79324.13;6179903;23;20092;-93
2022/03/07 02:13:18;;;;;;;22.77;12.20;;;;;;;-144.19;100.00;79324.13;6179739;23;20027;-89
2022/03/07 02:15:52;;;;;;;18.52;12.55;;;;;;;-144.19;100.00;79308.38;6155650;23;20100;-88
2022/03/07 02:18:21;;;;;;;19.10;12.25;;;;;;;-144.19;100.00;79312.31;6182237;23;20025;-90
2022/03/07 02:20:59;;;;;;;21.10;13.60;;;;;;;-144.19;100.00;79308.38;6155432;23;20021;-89
2022/03/07 02:23:26;;;;;;;16.98;12.60;;;;;;;-144.19;100.00;79302.47;6155000;23;20017;-88
2022/03/07 02:25:52;;;;;;;18.45;13.93;;;;;;;-144.19;100.00;79282.75;6180495;23;20025;-91
2022/03/07 02:28:20;;;;;;;17.87;11.53;;;;;;;-144.19;100.00;79288.69;6181459;23;20097;-91
2022/03/07 02:30:46;;;;;;;20.73;13.07;;;;;;;-144.19;100.00;79280.78;6181672;23;20028;-90
2022/03/07 02:33:13;;;;;;;17.42;12.30;;;;;;;-144.19;100.00;79284.75;6181738;23;20028;-89
2022/03/07 02:35:39;;;;;;;20.35;13.77;;;;;;;-144.19;100.00;79257.16;6182281;23;20357;-90
2022/03/07 02:38:14;;;;;;;23.30;12.82;;;;;;;-144.19;100.00;79290.66;6182863;23;20458;-90
2022/03/07 02:40:41;;;;;;;21.95;13.18;;;;;;;-144.19;100.00;79278.81;6155408;23;20017;-88
2022/03/07 02:43:16;;;;;;;21.20;13.32;;;;;;;-144.19;100.00;79276.84;6157137;23;20025;-89
2022/03/07 02:45:44;;;;;;;17.30;13.02;;;;;;;-144.19;100.00;79268.97;6182323;23;20032;-89
2022/03/07 02:48:11;;;;;;;18.77;13.82;;;;;;;-144.19;100.00;79267.00;6180333;23;20493;-89
2022/03/07 02:50:37;;;;;;;22.77;13.20;;;;;;;-144.19;100.00;79249.28;6181919;23;20025;-90
2022/03/07 02:53:04;;;;;;;20.50;12.65;;;;;;;-144.19;100.00;79265.03;6181727;23;20052;-89
2022/03/07 02:55:32;;;;;;;20.02;13.75;;;;;;;-144.19;100.00;79255.19;6156045;23;20017;-88
2022/03/07 02:57:59;;;;;;;20.13;13.57;;;;;;;-144.19;100.00;79229.59;6180282;23;20017;-90
2022/03/07 03:00:25;;;;;;;19.98;12.77;;;;;;;-144.19;100.00;79249.28;6155477;23;20453;-91
2022/03/07 03:02:52;;;;;;;16.95;12.38;;;;;;;-144.19;100.00;79249.28;6179400;23;20021;-89
2022/03/07 03:05:18;;;;;;;20.08;12.63;;;;;;;-144.19;100.00;79239.44;6181937;23;20049;-88
2022/03/07 03:07:48;;;;;;;20.73;12.77;;;;;;;-144.19;100.00;79237.47;6180908;23;20021;-90
2022/03/07 03:10:14;;;;;;;18.83;12.85;;;;;;;-144.19;100.00;79237.47;6180088;23;20021;-90
2022/03/07 03:12:41;;;;;;;18.75;12.80;;;;;;;-144.19;100.00;79229.59;6179768;23;20024;-88
2022/03/07 03:15:08;;;;;;;18.83;13.57;;;;;;;-144.19;100.00;79233.53;6155900;23;20021;-89
2022/03/07 03:17:38;;;;;;;19.00;12.45;;;;;;;-144.19;100.00;79241.41;6179953;23;20484;-89
2022/03/07 03:20:05;;;;;;;19.20;12.93;;;;;;;-144.19;100.00;79253.22;6155441;23;20027;-88
2022/03/07 03:22:32;;;;;;;19.35;13.63;;;;;;;-144.19;100.00;79245.34;6181514;23;20017;-90
2022/03/07 03:24:58;;;;;;;;;;;;;;;-144.19;100.00;79239.44;6182587;23;20041;-89
2022/03/07 03:27:24;;;;;;;21.38;12.95;;;;;;;-144.19;100.00;79237.47;6156748;23;19916;-89
2022/03/07 03:29:54;;;;;;;20.42;13.63;;;;;;;-144.19;100.00;79245.34;6181716;23;20048;-88
2022/03/07 03:32:20;;;;;;;20.05;13.68;;;;;;;-144.19;100.00;79245.34;6181543;23;20523;-89
2022/03/07 03:34:47;;;;;;;24.63;14.35;;;;;;;-144.19;100.00;79257.16;6158445;23;20017;-88
2022/03/07 03:37:13;;;;;;;19.83;13.85;;;;;;;-144.19;100.00;79257.16;6183602;23;20025;-88
2022/03/07 03:39:40;;;;;;;20.23;13.57;;;;;;;-144.19;100.00;79253.22;6182719;23;20353;-91
2022/03/07 03:42:06;;;;;;;19.55;14.52;;;;;;;-144.19;100.00;79239.44;6181792;23;20025;-88
2022/03/07 03:44:33;;;;;;;19.60;12.98;;;;;;;-144.19;100.00;79247.31;6184483;23;20025;-88
2022/03/07 03:47:00;;;;;;;20.33;14.88;;;;;;;-144.19;100.00;79239.44;6182462;23;20433;-88
2022/03/07 03:49:29;;;;;;;19.55;15.13;;;;;;;-144.19;100.00;79233.53;6182523;23;20458;-89
2022/03/07 03:51:56;;;;;;;20.92;13.32;;;;;;;-144.19;100.00;79225.66;6182890;23;20021;-90
2022/03/07 03:54:22;;;;;;;;;;;;;;;-144.19;100.00;79213.81;6183076;23;20029;-88
2022/03/07 03:56:50;;;;;;;20.40;13.38;;;;;;;-144.19;100.00;79213.81;6157847;23;19927;-89
2022/03/07 03:59:16;;;;;;;;;;;;;;;-144.19;100.00;79200.03;6157929;23;20461;-89
2022/03/07 04:01:44;;;;;;;19.05;12.82;;;;;;;-144.19;100.00;79200.03;6157264;23;19916;-90
2022/03/07 04:04:12;;;;;;;21.48;13.57;;;;;;;-144.19;100.00;79198.06;6181195;23;20029;-89
2022/03/07 04:06:42;;;;;;;19.52;13.73;;;;;;;-144.19;100.00;79190.19;6158952;23;20391;-89
2022/03/07 04:09:16;;;;;;;21.02;13.80;;;;;;;-144.19;100.00;79202.00;6159039;23;20532;-89
2022/03/07 04:11:43;;;;;;;23.05;13.70;;;;;;;-144.19;100.00;79209.88;6158148;23;20024;-87
2022/03/07 04:14:10;;;;;;;25.38;14.90;;;;;;;-144.19;100.00;79251.25;6182745;23;20021;-89
2022/03/07 04:16:38;;;;;;;19.00;13.68;;;;;;;-144.19;100.00;79257.16;6158094;23;20108;-89
2022/03/07 04:19:09;;;;;;;24.25;14.13;;;;;;;-144.19;100.00;79233.53;6182641;23;20497;-89
2022/03/07 04:21:38;;;;;;;18.52;13.02;;;;;;;-144.19;100.00;79233.53;6158249;23;20021;-88
2022/03/07 04:24:06;;;;;;;17.52;13.48;;;;;;;-144.19;100.00;79233.53;6159234;23;20076;-88
2022/03/07 04:26:33;;;;;;;20.17;13.32;;;;;;;-144.19;100.00;79229.59;6183640;23;20349;-87
2022/03/07 04:29:14;;;;;;;20.00;14.40;;;;;;;-144.19;100.00;79221.72;6184211;23;20100;-90
2022/03/07 04:31:42;;;;;;;19.77;13.30;;;;;;;-144.19;100.00;79229.59;6157685;23;20017;-89
2022/03/07 04:34:10;;;;;;;20.42;13.75;;;;;;;-144.19;100.00;79229.59;6181418;23;20032;-85
2022/03/07 04:36:38;;;;;;;22.55;15.05;;;;;;;-144.19;100.00;79241.41;6157604;23;20017;-87
2022/03/07 04:39:07;;;;;;;18.50;13.73;;;;;;;-144.19;100.00;79237.47;6182274;23;20112;-88
2022/03/07 04:41:34;;;;;;;24.10;14.48;;;;;;;-144.19;100.00;79233.53;6157548;23;20016;-87
2022/03/07 04:44:01;;;;;;;24.67;13.90;;;;;;;-144.19;100.00;79233.53;6157616;23;20027;-86
2022/03/07 04:46:27;;;;;;;18.17;13.38;;;;;;;-144.19;100.00;79231.56;6184584;23;20044;-87
2022/03/07 04:48:57;;;;;;;22.02;14.13;;;;;;;-144.19;100.00;79237.47;6182554;23;20410;-87
2022/03/07 04:51:24;;;;;;;22.25;14.55;;;;;;;-144.19;100.00;79227.63;6182206;23;20029;-89
2022/03/07 04:53:50;;;;;;;22.60;14.25;;;;;;;-144.19;100.00;79233.53;6182204;23;20040;-86
2022/03/07 04:56:17;;;;;;;20.30;14.15;;;;;;;-144.19;100.00;79237.47;6158310;23;20024;-88
2022/03/07 04:58:43;;;;;;;20.63;14.23;;;;;;;-144.19;100.00;79229.59;6183316;23;20025;-87
2022/03/07 05:01:10;;;;;;;21.20;14.70;;;;;;;-144.19;100.00;79229.59;6184323;23;20021;-89
2022/03/07 05:03:37;;;;;;;;;;;;;;;-144.19;100.00;79221.72;6142597;23;20057;-86
2022/03/07 05:06:04;;;;;;;19.35;14.52;;;;;;;-144.19;100.00;79213.81;6157178;23;20003;-86
2022/03/07 05:08:31;;;;;;;23.30;14.95;;;;;;;-144.19;100.00;79211.84;6159977;23;20021;-86
2022/03/07 05:10:57;;;;;;;22.90;14.37;;;;;;;-144.19;100.00;79200.03;6132604;23;20393;-84
2022/03/07 05:13:24;;;;;;;27.90;16.90;;;;;;;-144.19;100.00;79198.06;6132045;23;20245;-85
2022/03/07 05:15:50;;;;;;;25.80;16.77;;;;;;;-144.19;100.00;79198.06;6158288;23;20370;-85
2022/03/07 05:18:19;;;;;;;33.40;19.42;;;;;;;-144.19;100.00;79205.94;6130441;23;20265;-86
2022/03/07 05:20:46;;;;;;;34.13;19.73;;;;;;;-144.19;100.00;79205.94;6157327;23;20361;-86
2022/03/07 05:23:32;;;;;;;25.52;16.50;;;;;;;-144.19;100.00;79198.06;6135276;23;20312;-85
2022/03/07 05:25:58;;;;;;;30.45;17.33;;;;;;;-144.19;100.00;79198.06;6157871;23;20049;-85
2022/03/07 05:28:25;;;;;;;25.02;17.27;;;;;;;-144.19;100.00;79211.84;6131109;23;20028;-86
2022/03/07 05:30:51;;;;;;;25.80;16.33;;;;;;;-144.19;100.00;79209.88;6130471;23;20025;-85
2022/03/07 05:33:17;;;;;;;28.17;16.73;;;;;;;-144.19;100.00;79209.88;6129862;23;20022;-86
2022/03/07 05:35:44;;;;;;;27.00;17.77;;;;;;;-144.19;100.00;79202.00;6157396;23;20057;-85
2022/03/07 05:38:15;;;;;;;29.15;18.05;;;;;;;-144.19;100.00;79217.75;6155271;23;20481;-85
2022/03/07 05:40:42;;;;;;;30.98;17.83;;;;;;;-144.19;100.00;79227.63;6129274;23;20029;-85
2022/03/07 05:43:09;;;;;;;25.55;15.98;;;;;;;-144.19;100.00;79233.53;6155700;23;20021;-84
2022/03/07 05:45:35;;;;;;;34.63;18.75;;;;;;;-144.19;100.00;79241.41;6129670;23;20463;-86
2022/03/07 05:48:02;;;;;;;29.15;18.42;;;;;;;-144.19;100.00;79245.34;6130628;23;20088;-86
2022/03/07 05:50:28;;;;;;;31.65;16.88;;;;;;;-144.19;100.00;79265.03;6155908;23;20022;-85
2022/03/07 05:52:54;;;;;;;27.77;17.03;;;;;;;-144.19;100.00;79272.91;6155086;23;20022;-86
2022/03/07 05:55:24;;;;;;;27.02;17.13;;;;;;;-144.19;100.00;79274.88;6130010;23;20022;-85
2022/03/07 05:57:51;;;;;;;28.15;17.23;;;;;;;-144.19;100.00;79276.84;6156647;23;20036;-84
2022/03/07 06:00:17;;;;;;;26.65;16.73;;;;;;;-144.19;100.00;79278.81;6128933;23;20017;-85
2022/03/07 06:02:43;;;;;;;24.77;17.23;;;;;;;-144.19;100.00;79270.94;6154289;23;20036;-85
2022/03/07 06:05:10;;;;;;;29.05;16.83;;;;;;;-144.19;100.00;79257.16;6129226;23;20029;-85
2022/03/07 06:07:37;;;;;;;26.73;16.73;;;;;;;-144.19;100.00;79270.94;6153709;23;20567;-84
2022/03/07 06:10:04;;;;;;;25.77;16.97;;;;;;;-144.19;100.00;79257.16;6127733;23;20021;-86
2022/03/07 06:12:30;;;;;;;31.30;17.90;;;;;;;-144.19;100.00;79247.31;6151348;23;20252;-86
2022/03/07 06:14:57;;;;;;;24.13;16.33;;;;;;;-144.19;100.00;79235.50;6127909;23;20033;-85
2022/03/07 06:17:23;;;;;;;24.15;16.08;;;;;;;-144.19;100.00;79229.59;6155294;23;20018;-84
2022/03/07 06:19:49;;;;;;;25.67;17.10;;;;;;;-144.19;100.00;79217.75;6153455;23;20025;-84
2022/03/07 06:22:16;;;;;;;27.47;17.77;;;;;;;-144.19;100.00;79215.78;6152112;23;20747;-85
2022/03/07 06:24:42;;;;;;;28.77;17.88;;;;;;;-144.19;100.00;79202.00;6129637;23;20030;-86
2022/03/07 06:27:09;;;;;;;22.33;16.47;;;;;;;-144.19;100.00;79202.00;6152996;23;20590;-85
2022/03/07 06:29:35;;;;;;;27.33;16.98;;;;;;;-144.19;100.00;79205.94;6155091;23;20112;-84
2022/03/07 06:32:02;;;;;;;25.70;17.10;;;;;;;-144.19;100.00;79225.66;6152685;23;20524;-83
2022/03/07 06:34:28;;;;;;;26.25;17.42;;;;;;;-144.19;100.00;79225.66;6154976;23;20089;-86
2022/03/07 06:36:55;;;;;;;22.20;15.23;;;;;;;-144.19;100.00;79245.34;6160207;23;20024;-88
2022/03/07 06:39:25;;;;;;;21.30;16.58;;;;;;;-144.19;100.00;79245.34;6158378;23;20025;-87
2022/03/07 06:41:52;;;;;;;20.10;14.70;;;;;;;-144.19;100.00;79249.28;6156417;23;20033;-85
2022/03/07 06:44:18;;;;;;;24.33;15.90;;;;;;;-144.19;100.00;79249.28;6132273;23;20028;-85
2022/03/07 06:46:45;;;;;;;23.90;15.93;;;;;;;-144.19;100.00;79253.22;6158289;23;20045;-86
2022/03/07 06:49:11;;;;;;;23.33;16.55;;;;;;;-144.19;100.00;79249.28;6159423;23;20100;-86
2022/03/07 06:51:37;;;;;;;21.27;15.40;;;;;;;-144.19;100.00;79251.25;6156290;23;20508;-84
2022/03/07 06:54:04;;;;;;;21.73;16.30;;;;;;;-144.19;100.00;79253.22;6155411;23;20251;-85
2022/03/07 06:56:31;;;;;;;20.98;15.23;;;;;;;-144.19;100.00;79261.09;6159868;23;20245;-85
2022/03/07 06:58:57;;;;;;;21.87;15.43;;;;;;;-144.19;100.00;79261.09;6159088;23;20021;-85
2022/03/07 07:01:23;;;;;;;24.80;17.67;;;;;;;-144.19;100.00;79274.88;6132807;23;20018;-85
2022/03/07 07:03:50;;;;;;;28.17;16.98;;;;;;;-144.19;100.00;79251.25;6131371;23;20245;-82
2022/03/07 07:06:17;;;;;;;18.55;12.95;;;;;;;-144.19;100.00;79257.16;6158633;23;20028;-84
2022/03/07 07:08:43;;;;;;;26.00;18.27;;;;;;;-144.19;100.00;79243.38;6158239;23;20029;-84
2022/03/07 07:11:09;;;;;;;26.17;15.70;;;;;;;-144.19;100.00;79253.22;6131252;23;20249;-84
2022/03/07 07:13:39;;;;;;;29.50;17.70;;;;;;;-144.19;100.00;79247.31;6164033;23;20029;-84
2022/03/07 07:16:05;;;;;;;24.52;18.73;;;;;;;-144.19;100.00;79233.53;6167002;23;20035;-84
2022/03/07 07:18:32;;;;;;;22.10;16.02;;;;;;;-144.19;100.00;79237.47;6157903;23;20493;-84
2022/03/07 07:20:58;;;;;;;28.33;19.05;;;;;;;-144.19;100.00;79231.56;6158029;23;20029;-84
2022/03/07 07:23:25;;;;;;;26.17;17.47;;;;;;;-144.19;100.00;79223.69;6156291;23;20055;-83
2022/03/07 07:25:51;;;;;;;25.10;18.00;;;;;;;-144.19;100.00;79217.75;6155113;23;20251;-84
2022/03/07 07:28:18;;;;;;;28.23;16.90;;;;;;;-144.19;100.00;79209.88;6157916;23;20031;-82
2022/03/07 07:30:46;;;;;;;23.75;17.45;;;;;;;-144.19;100.00;79202.00;6155062;23;20028;-82
2022/03/07 07:33:12;;;;;;;24.42;16.80;;;;;;;-144.19;100.00;79186.25;6156078;23;20025;-82
2022/03/07 07:35:39;;;;;;;23.10;16.63;;;;;;;-144.19;100.00;79174.44;6157857;23;20021;-81
2022/03/07 07:38:07;;;;;;;27.83;17.50;;;;;;;-144.19;100.00;79160.66;6156608;23;20018;-81
2022/03/07 07:40:37;;;;;;;29.08;17.50;;;;;;;-144.19;100.00;79138.97;6162535;23;20029;-80
2022/03/07 07:43:07;;;;;;;25.17;17.50;;;;;;;-144.19;100.00;79127.16;6169825;23;20026;-81
2022/03/07 07:45:43;;;;;;;29.63;16.63;;;;;;;-144.19;100.00;79107.47;6172555;23;20017;-81
2022/03/07 07:48:53;;;;;;;28.33;17.45;;;;;;;-144.19;100.00;79107.47;6170186;23;20053;-81
2022/03/07 07:52:18;;;;;;;26.42;18.50;;;;;;;-144.19;100.00;79091.72;6133827;23;20874;-81
2022/03/07 07:54:48;;;;;;;27.05;17.85;;;;;;;-144.19;100.00;79075.94;6140957;23;20030;-80
2022/03/07 07:57:22;;;;;;;25.63;17.13;;;;;;;-144.19;100.00;79064.13;6173957;23;20018;-80
2022/03/07 07:59:53;;;;;;;25.05;17.52;;;;;;;-144.19;100.00;79050.34;6172188;23;20072;-80
2022/03/07 08:02:55;;;;;;;26.80;17.52;;;;;;;-144.19;100.00;79052.31;6151510;23;20032;-81
2022/03/07 08:05:32;;;;;;;27.38;17.23;;;;;;;-144.19;100.00;79042.47;6148179;23;20021;-81
2022/03/07 08:08:01;;;;;;;26.02;17.42;;;;;;;-144.19;100.00;79038.53;6148143;23;20066;-81
2022/03/07 08:10:29;;;;;;;29.08;17.38;;;;;;;-144.19;100.00;79028.69;6148766;23;20069;-80
2022/03/07 08:12:59;;;;;;;31.42;18.65;;;;;;;-144.19;100.00;79024.75;6172840;23;20052;-81
2022/03/07 08:15:40;;;;;;;31.63;17.20;;;;;;;-144.19;100.00;79005.03;6149508;23;20032;-81
2022/03/07 08:18:51;;;;;;;31.50;18.83;;;;;;;-144.19;100.00;78995.19;6174347;23;20018;-81
2022/03/07 08:21:58;;;;;;;27.27;16.50;;;;;;;-144.19;100.00;79014.88;6171781;23;20076;-80
2022/03/07 08:24:43;;;;;;;27.45;17.30;;;;;;;-144.19;100.00;79012.91;6141858;23;20036;-82
2022/03/07 08:27:19;;;;;;;26.95;17.02;;;;;;;-144.19;100.00;78989.28;6146507;23;20072;-83
2022/03/07 08:33:34;;;;;;;31.20;18.02;;;;;;;-144.19;100.00;78989.28;6168416;23;20025;-82
2022/03/07 08:36:08;;;;;;;31.52;17.58;;;;;;;-144.19;100.00;78981.41;6151742;23;20249;-82
2022/03/07 08:38:37;;;;;;;26.02;18.05;;;;;;;-144.19;100.00;78957.78;6173686;23;20032;-81
2022/03/07 08:41:07;;;;;;;;;;;;;;;-144.19;100.00;78975.50;6175499;23;20053;-81
2022/03/07 08:43:37;;;;;;;34.88;17.85;;;;;;;-144.19;100.00;78975.50;6177109;23;19940;-80
2022/03/07 08:46:06;;;;;;;28.23;17.50;;;;;;;-144.19;100.00;78975.50;6152114;23;20506;-80
2022/03/07 08:48:33;;;;;;;27.95;18.05;;;;;;;-144.19;100.00;78963.69;6151467;23;20049;-81
2022/03/07 08:51:06;;;;;;;31.02;18.67;;;;;;;-144.19;100.00;78940.03;6175840;23;20048;-82
2022/03/07 08:53:36;;;;;;;32.08;18.45;;;;;;;-144.19;100.00;78942.00;6175897;23;20033;-80
2022/03/07 08:56:14;;;;;;;31.20;18.17;;;;;;;-144.19;100.00;78924.28;6176336;23;20010;-82
2022/03/07 08:58:56;;;;;;;30.08;18.65;;;;;;;-144.19;100.00;78922.31;6176531;23;20025;-82
2022/03/07 09:01:41;;;;;;;27.60;18.10;;;;;;;-144.19;100.00;78934.13;6177853;23;20025;-82
2022/03/07 09:04:34;;;;;;;26.70;17.98;;;;;;;-144.19;100.00;78879.00;6178765;23;20053;-82
2022/03/07 09:16:14;;;;;;;29.30;19.33;;;;;;;-144.19;100.00;78888.84;6148006;23;20090;-82
2022/03/07 09:19:47;;;;;;;29.50;19.05;;;;;;;-144.19;100.00;78920.34;6146398;23;20034;-83
2022/03/07 09:22:31;;;;;;;31.02;18.98;;;;;;;-144.19;100.00;78859.28;6084105;23;20026;-83
2022/03/07 09:24:59;;;;;;;34.42;20.42;;;;;;;-144.19;100.00;78835.66;6148518;23;20053;-82
2022/03/07 09:27:28;;;;;;;;;;;;;;;-144.19;100.00;78817.94;6177470;23;20028;-82
2022/03/07 09:30:09;;;;;;;33.35;21.10;;;;;;;-144.19;100.00;78810.06;6178861;23;19907;-83
2022/03/07 09:32:48;;;;;;;32.78;20.98;;;;;;;-144.19;100.00;78808.09;6178519;23;20053;-83
2022/03/07 09:35:21;;;;;;;32.03;21.13;;;;;;;-144.19;100.00;78814.00;6153089;23;20036;-83
2022/03/07 09:37:55;;;;;;;33.28;21.48;;;;;;;-144.19;100.00;78794.31;6153870;23;20057;-83
2022/03/07 09:40:54;;;;;;;32.92;22.13;;;;;;;-144.19;100.00;78780.50;6177180;23;20035;-83
2022/03/07 09:47:50;;;;;;;32.65;20.52;;;;;;;-144.19;100.00;78796.28;6103410;23;20025;-82
2022/03/07 09:50:24;;;;;;;34.72;20.92;;;;;;;-144.19;100.00;78713.56;6172424;23;20052;-83
2022/03/07 09:53:03;;;;;;;30.55;20.27;;;;;;;-144.19;100.00;78750.97;6153456;23;20083;-83
2022/03/07 09:56:08;;;;;;;29.48;19.83;;;;;;;-144.19;100.00;78776.56;6178535;23;20073;-83
2022/03/07 09:59:15;;;;;;;31.80;19.85;;;;;;;-144.19;100.00;78774.59;6178475;23;20005;-82
2022/03/07 10:05:45;;;;;;;;;;;;;;;;;;;;;
2022/03/07 10:13:00;;;;;;;31.80;22.25;;;;;;;-144.19;100.00;78701.72;5977313;24;20230;-82
2022/03/07 10:15:42;;;;;;;28.63;20.58;;;;;;;-144.19;100.00;78670.22;5955974;24;20035;-83
2022/03/07 10:18:37;;;;;;;29.45;20.05;;;;;;;-144.19;100.00;78668.25;5981793;24;20008;-83
2022/03/07 10:21:43;;;;;;;34.00;21.67;;;;;;;-144.19;100.00;78615.09;6147703;23;20041;-82
2022/03/07 10:24:37;;;;;;;30.48;20.27;;;;;;;-144.19;100.00;78634.78;6156621;23;20021;-83
2022/03/07 10:27:41;;;;;;;32.17;20.50;;;;;;;-144.19;100.00;78595.38;6152773;23;20084;-83
2022/03/07 10:31:07;;;;;;;29.00;19.88;;;;;;;-144.19;100.00;78613.09;6173210;23;20040;-83
2022/03/07 10:34:26;;;;;;;32.13;20.92;;;;;;;-144.19;100.00;78506.75;6031094;23;20020;-82
2022/03/07 10:37:40;;;;;;;34.15;21.10;;;;;;;-144.19;100.00;78445.72;6155565;23;20207;-82
2022/03/07 10:43:29;;;;;;;28.20;19.25;;;;;;;-144.19;100.00;78361.03;6179633;23;20044;-82
2022/03/07 10:46:24;;;;;;;;;;;;;;;;;;;;;
2022/03/07 10:49:19;;;;;;;28.70;18.15;;;;;;;-144.19;100.00;78364.97;6171262;23;20017;-81
2022/03/07 10:52:36;;;;;;;25.10;19.48;;;;;;;-144.19;100.00;78341.34;6156297;23;20008;-81
2022/03/07 10:55:54;;;;;;;27.95;18.05;;;;;;;-144.19;100.00;78364.97;6165089;23;20025;-81
2022/03/07 10:58:31;;;;;;;26.45;19.02;;;;;;;-144.19;100.00;78278.31;6144955;23;20030;-81
2022/03/07 11:01:04;;;;;;;24.45;16.88;;;;;;;-144.19;100.00;78215.31;6152632;23;20017;-81
2022/03/07 11:03:33;;;;;;;26.83;18.70;;;;;;;-144.19;100.00;78079.44;6148586;23;20104;-87
2022/03/07 11:06:01;;;;;;;25.85;17.80;;;;;;;-144.19;100.00;78227.13;6159158;23;20031;-87
2022/03/07 11:08:28;;;;;;;;;;;;;;;-144.19;100.00;78173.94;6157787;23;20017;-88
2022/03/07 11:11:00;;;;;;;23.75;17.38;;;;;;;-144.19;100.00;78290.13;6157900;23;20341;-88
2022/03/07 11:13:29;;;;;;;26.42;18.80;;;;;;;-144.19;100.00;78236.97;6153367;23;20732;-88
2022/03/07 11:15:59;;;;;;;25.40;16.25;;;;;;;-144.19;100.00;78122.75;6154834;23;20025;-87
2022/03/07 11:18:28;;;;;;;26.08;18.20;;;;;;;-144.19;100.00;77858.91;6160860;23;20013;-90
2022/03/07 11:20:56;;;;;;;27.23;17.30;;;;;;;-144.19;100.00;77793.91;6160421;23;20048;-90
2022/03/07 11:23:23;;;;;;;23.52;16.85;;;;;;;-144.19;100.00;77874.66;6161792;23;20017;-89
2022/03/07 11:25:52;;;;;;;22.17;15.60;;;;;;;-144.19;100.00;78083.38;6160592;23;20025;-87
2022/03/07 11:28:23;;;;;;;21.58;15.82;;;;;;;-144.19;100.00;78197.59;6159786;23;20021;-90
2022/03/07 11:30:51;;;;;;;23.08;16.48;;;;;;;-144.19;100.00;78130.63;6159907;23;20092;-88
2022/03/07 11:33:20;;;;;;;26.40;17.70;;;;;;;-144.19;100.00;77854.97;6159695;23;20493;-88
2022/03/07 11:35:50;;;;;;;24.23;16.98;;;;;;;-144.19;99.00;77906.16;6159528;23;20041;-89
2022/03/07 11:38:24;;;;;;;23.52;16.20;;;;;;;-144.19;99.22;77797.84;6159876;23;20013;-90
2022/03/07 11:41:06;;;;;;;22.05;16.08;;;;;;;-144.19;92.45;77914.03;6159609;23;20465;-90
2022/03/07 11:43:35;;;;;;;22.52;17.50;;;;;;;-144.19;97.75;78036.13;6184332;23;20017;-90
2022/03/07 11:46:03;;;;;;;23.67;16.20;;;;;;;-144.19;100.00;78162.13;6159516;23;20253;-88
2022/03/07 11:48:41;;;;;;;26.50;17.60;;;;;;;-144.19;100.00;77898.28;6158812;23;20462;-91